createdAt,value
2017-09-27T00:01:53.367Z,12.87
2017-09-27T00:04:21.725Z,10.80
2017-09-27T00:06:49.317Z,11.50
2017-09-27T00:09:16.927Z,13.87
2017-09-27T00:11:45.562Z,13.37
2017-09-27T00:14:13.152Z,14.03
2017-09-27T00:16:41.553Z,14.57
2017-09-27T00:19:09.899Z,15.13
2017-09-27T00:21:37.484Z,15.40
2017-09-27T00:24:05.058Z,14.53
2017-09-27T00:26:33.484Z,13.67
2017-09-27T00:29:01.047Z,13.73
2017-09-27T00:31:28.664Z,12.37
2017-09-27T00:33:57.024Z,13.83
2017-09-27T00:36:24.630Z,13.80
2017-09-27T00:38:52.194Z,14.07
2017-09-27T00:41:19.762Z,14.60
2017-09-27T00:43:47.338Z,14.00
2017-09-27T00:46:14.916Z,15.90
2017-09-27T00:48:42.517Z,17.07
2017-09-27T00:51:10.092Z,17.23
2017-09-27T00:53:37.910Z,16.40
2017-09-27T00:56:05.505Z,16.43
2017-09-27T00:58:33.384Z,17.80
2017-09-27T01:01:00.973Z,17.10
2017-09-27T01:03:28.557Z,17.07
2017-09-27T01:05:56.151Z,17.50
2017-09-27T01:08:23.726Z,16.50
2017-09-27T01:10:51.323Z,18.50
2017-09-27T01:13:18.902Z,18.40
2017-09-27T01:15:47.329Z,17.27
2017-09-27T01:18:14.913Z,17.40
2017-09-27T01:20:42.513Z,17.50
2017-09-27T01:23:10.894Z,17.77
2017-09-27T01:25:38.468Z,18.37
2017-09-27T01:28:06.826Z,16.60
2017-09-27T01:30:35.348Z,17.70
2017-09-27T01:33:03.729Z,17.87
2017-09-27T01:35:31.288Z,18.23
2017-09-27T01:37:58.865Z,16.00
2017-09-27T01:40:26.438Z,15.53
2017-09-27T01:42:54.030Z,16.73
2017-09-27T01:45:21.638Z,17.77
2017-09-27T01:47:49.205Z,16.33
2017-09-27T01:50:16.797Z,15.37
2017-09-27T01:52:44.369Z,15.10
2017-09-27T01:55:11.958Z,16.10
2017-09-27T01:57:40.325Z,15.60
2017-09-27T02:00:07.905Z,15.60
2017-09-27T02:02:36.367Z,14.60
2017-09-27T02:05:03.934Z,15.77
2017-09-27T02:07:31.531Z,14.80
2017-09-27T02:09:59.130Z,15.50
2017-09-27T02:12:26.718Z,15.90
2017-09-27T02:14:54.306Z,16.13
2017-09-27T02:17:21.905Z,15.20
2017-09-27T02:19:49.525Z,15.30
2017-09-27T02:22:17.859Z,15.17
2017-09-27T02:24:45.520Z,14.60
2017-09-27T02:27:13.121Z,15.70
2017-09-27T02:29:41.529Z,15.30
2017-09-27T02:32:09.130Z,15.23
2017-09-27T02:34:36.699Z,15.13
2017-09-27T02:37:04.299Z,14.90
2017-09-27T02:39:31.878Z,14.77
2017-09-27T02:41:59.514Z,15.03
2017-09-27T02:44:27.110Z,13.00
2017-09-27T02:46:54.670Z,14.50
2017-09-27T02:49:22.272Z,13.80
2017-09-27T02:51:49.843Z,14.10
2017-09-27T02:54:18.222Z,14.20
2017-09-27T02:56:46.568Z,13.37
2017-09-27T02:59:14.186Z,14.37
2017-09-27T03:01:41.758Z,13.93
2017-09-27T03:04:09.362Z,12.67
2017-09-27T03:06:36.930Z,14.43
2017-09-27T03:09:04.526Z,13.90
2017-09-27T03:11:32.898Z,13.77
2017-09-27T03:14:01.266Z,13.03
2017-09-27T03:16:29.633Z,13.90
2017-09-27T03:18:57.210Z,12.13
2017-09-27T03:21:25.572Z,13.70
2017-09-27T03:23:53.142Z,13.63
2017-09-27T03:26:21.502Z,14.20
2017-09-27T03:28:49.086Z,12.83
2017-09-27T03:31:17.458Z,12.67
2017-09-27T03:33:45.841Z,13.47
2017-09-27T03:36:13.423Z,12.67
2017-09-27T03:38:41.029Z,11.50
2017-09-27T03:41:08.616Z,11.70
2017-09-27T03:43:36.213Z,11.83
2017-09-27T03:46:03.991Z,11.83
2017-09-27T03:48:31.604Z,12.03
2017-09-27T03:50:59.169Z,13.03
2017-09-27T03:53:27.515Z,13.40
2017-09-27T03:55:55.157Z,12.80
2017-09-27T03:58:23.506Z,12.63
2017-09-27T04:00:51.883Z,12.60
2017-09-27T04:03:20.243Z,12.40
2017-09-27T04:05:47.956Z,13.83
2017-09-27T04:08:15.546Z,13.30
2017-09-27T04:10:43.137Z,13.50
2017-09-27T04:13:10.757Z,12.47
2017-09-27T04:15:38.341Z,12.80
2017-09-27T04:18:05.950Z,12.37
2017-09-27T04:20:33.558Z,12.53
2017-09-27T04:23:01.150Z,11.87
2017-09-27T04:25:29.489Z,14.10
2017-09-27T04:27:57.084Z,12.77
2017-09-27T04:30:25.483Z,12.33
2017-09-27T04:32:53.897Z,11.90
2017-09-27T04:35:21.498Z,14.00
2017-09-27T04:37:49.076Z,11.87
2017-09-27T04:40:17.418Z,13.90
2017-09-27T04:42:45.118Z,14.50
2017-09-27T04:45:12.678Z,14.60
2017-09-27T04:47:41.103Z,14.47
2017-09-27T04:50:09.479Z,12.93
2017-09-27T04:52:37.078Z,14.30
2017-09-27T04:55:04.671Z,13.83
2017-09-27T04:57:33.012Z,13.43
2017-09-27T05:00:00.606Z,13.50
2017-09-27T05:02:28.942Z,14.03
2017-09-27T05:04:56.515Z,13.50
2017-09-27T05:07:24.105Z,13.43
2017-09-27T05:09:52.467Z,14.30
2017-09-27T05:12:20.046Z,15.20
2017-09-27T05:14:48.390Z,14.43
2017-09-27T05:17:15.978Z,14.77
2017-09-27T05:19:43.621Z,15.00
2017-09-27T05:22:11.219Z,13.80
2017-09-27T05:24:39.592Z,14.90
2017-09-27T05:27:07.939Z,15.50
2017-09-27T05:29:35.542Z,14.17
2017-09-27T05:32:03.159Z,15.00
2017-09-27T05:34:30.726Z,15.57
2017-09-27T05:36:58.410Z,15.67
2017-09-27T05:39:26.777Z,15.53
2017-09-27T05:41:54.359Z,15.10
2017-09-27T05:44:22.711Z,15.17
2017-09-27T05:46:51.302Z,18.53
2017-09-27T05:49:23.642Z,17.27
2017-09-27T05:51:51.389Z,16.20
2017-09-27T05:54:19.002Z,16.20
2017-09-27T05:56:46.574Z,15.80
2017-09-27T05:59:14.931Z,16.20
2017-09-27T06:01:42.624Z,17.90
2017-09-27T06:04:10.992Z,16.73
2017-09-27T06:06:38.554Z,15.10
2017-09-27T06:09:06.382Z,15.00
2017-09-27T06:11:33.977Z,15.77
2017-09-27T06:14:02.328Z,15.30
2017-09-27T06:16:29.989Z,16.00
2017-09-27T06:18:57.569Z,15.50
2017-09-27T06:21:25.185Z,15.47
2017-09-27T06:23:52.753Z,17.53
2017-09-27T06:26:20.419Z,16.50
2017-09-27T06:28:48.012Z,14.67
2017-09-27T06:31:15.599Z,16.97
2017-09-27T06:33:43.941Z,15.30
2017-09-27T06:36:11.530Z,14.83
2017-09-27T06:38:39.899Z,15.20
2017-09-27T06:41:07.546Z,14.70
2017-09-27T06:43:35.122Z,14.47
2017-09-27T06:46:02.707Z,15.30
2017-09-27T06:48:31.036Z,13.97
2017-09-27T06:50:58.630Z,14.70
2017-09-27T06:53:26.970Z,14.00
2017-09-27T06:55:54.608Z,14.20
2017-09-27T06:58:22.205Z,13.10
2017-09-27T07:00:49.824Z,13.20
2017-09-27T07:03:17.403Z,13.20
2017-09-27T07:05:45.065Z,13.33
2017-09-27T07:08:12.687Z,14.30
2017-09-27T07:10:40.273Z,12.70
2017-09-27T07:13:08.614Z,14.50
2017-09-27T07:15:36.212Z,15.20
2017-09-27T07:18:03.805Z,15.33
2017-09-27T07:20:31.404Z,15.97
2017-09-27T07:22:58.985Z,16.03
2017-09-27T07:25:27.363Z,16.20
2017-09-27T07:27:55.821Z,15.90
2017-09-27T07:30:23.418Z,17.23
2017-09-27T07:32:51.058Z,14.83
2017-09-27T07:35:19.422Z,16.43
2017-09-27T07:37:47.030Z,17.07
2017-09-27T07:40:14.649Z,16.90
2017-09-27T07:42:42.329Z,16.40
2017-09-27T07:45:10.696Z,17.33
2017-09-27T07:47:38.289Z,16.50
2017-09-27T07:50:05.862Z,18.00
2017-09-27T07:52:33.462Z,16.53
2017-09-27T07:55:01.055Z,17.73
2017-09-27T07:57:29.375Z,17.90
2017-09-27T07:59:56.975Z,17.50
2017-09-27T08:02:24.547Z,18.50
2017-09-27T08:04:52.920Z,17.90
2017-09-27T08:07:20.499Z,18.20
2017-09-27T08:09:49.069Z,17.77
2017-09-27T08:12:16.626Z,18.50
2017-09-27T08:14:44.218Z,18.60
2017-09-27T08:17:11.811Z,18.70
2017-09-27T08:19:39.413Z,16.43
2017-09-27T08:22:06.981Z,16.27
2017-09-27T08:24:35.335Z,15.20
2017-09-27T08:27:02.914Z,15.70
2017-09-27T08:29:30.490Z,16.37
2017-09-27T08:31:58.873Z,16.87
2017-09-27T08:34:27.178Z,16.50
2017-09-27T08:36:55.526Z,16.50
2017-09-27T08:39:23.858Z,17.30
2017-09-27T08:41:51.466Z,16.40
2017-09-27T08:44:19.820Z,16.10
2017-09-27T08:46:47.402Z,15.27
2017-09-27T08:49:15.818Z,16.10
2017-09-27T08:51:43.397Z,16.33
2017-09-27T08:54:10.973Z,15.37
2017-09-27T08:56:38.550Z,16.17
2017-09-27T08:59:06.271Z,17.33
2017-09-27T09:01:33.846Z,17.40
2017-09-27T09:04:01.431Z,16.20
2017-09-27T09:06:29.021Z,16.67
2017-09-27T09:08:57.357Z,18.50
2017-09-27T09:11:24.949Z,18.60
2017-09-27T09:13:53.306Z,17.93
2017-09-27T09:16:20.895Z,16.93
2017-09-27T09:18:49.242Z,16.87
2017-09-27T09:21:16.848Z,16.33
2017-09-27T09:23:44.436Z,16.07
2017-09-27T09:26:12.785Z,16.23
2017-09-27T09:28:41.135Z,16.97
2017-09-27T09:31:08.709Z,16.40
2017-09-27T09:33:36.290Z,16.40
2017-09-27T09:36:04.618Z,18.10
2017-09-27T09:38:32.250Z,17.40
2017-09-27T09:40:59.815Z,17.27
2017-09-27T09:43:27.412Z,18.40
2017-09-27T09:45:55.014Z,18.80
2017-09-27T09:48:22.586Z,16.50
2017-09-27T09:50:50.974Z,17.70
2017-09-27T09:53:18.525Z,18.83
2017-09-27T09:55:46.135Z,17.47
2017-09-27T09:58:13.726Z,17.57
2017-09-27T10:00:42.116Z,17.83
2017-09-27T10:03:10.458Z,19.20
2017-09-27T10:05:38.041Z,18.67
2017-09-27T10:08:05.655Z,18.77
2017-09-27T10:10:33.282Z,19.40
2017-09-27T10:13:00.837Z,18.23
2017-09-27T10:15:29.189Z,19.40
2017-09-27T10:17:56.805Z,18.90
2017-09-27T10:20:24.391Z,18.27
2017-09-27T10:22:52.061Z,17.27
2017-09-27T10:25:19.642Z,19.07
2017-09-27T10:27:47.211Z,17.53
2017-09-27T10:30:15.651Z,19.77
2017-09-27T10:32:43.233Z,19.73
2017-09-27T10:35:10.830Z,18.20
2017-09-27T10:37:39.187Z,20.77
2017-09-27T10:40:06.792Z,19.67
2017-09-27T10:42:34.402Z,18.87
2017-09-27T10:45:01.978Z,18.33
2017-09-27T10:47:30.470Z,19.00
2017-09-27T10:49:58.817Z,18.70
2017-09-27T10:52:26.420Z,18.50
2017-09-27T10:54:53.982Z,18.20
2017-09-27T10:57:21.586Z,16.43
2017-09-27T10:59:49.171Z,17.40
2017-09-27T11:02:16.753Z,16.17
2017-09-27T11:04:45.114Z,16.97
2017-09-27T11:07:12.686Z,16.47
2017-09-27T11:09:41.046Z,16.00
2017-09-27T11:12:09.837Z,16.07
2017-09-27T11:14:37.431Z,15.93
2017-09-27T11:17:05.761Z,15.70
2017-09-27T11:19:33.355Z,14.30
2017-09-27T11:22:00.943Z,15.73
2017-09-27T11:24:29.083Z,15.80
2017-09-27T11:26:56.663Z,16.83
2017-09-27T11:29:25.020Z,16.43
2017-09-27T11:31:52.619Z,16.20
2017-09-27T11:34:20.230Z,15.87
2017-09-27T11:36:47.867Z,14.67
2017-09-27T11:39:15.451Z,15.13
2017-09-27T11:41:43.026Z,15.03
2017-09-27T11:44:10.655Z,15.20
2017-09-27T11:46:38.229Z,14.13
2017-09-27T11:49:05.890Z,14.03
2017-09-27T11:51:33.458Z,13.03
2017-09-27T11:54:01.031Z,13.77
2017-09-27T11:56:29.396Z,13.90
2017-09-27T11:58:56.965Z,12.40
2017-09-27T12:01:24.533Z,13.00
2017-09-27T12:03:52.125Z,13.80
2017-09-27T12:06:19.689Z,13.57
2017-09-27T12:08:47.264Z,13.30
2017-09-27T12:11:14.858Z,13.30
2017-09-27T12:13:42.455Z,12.70
2017-09-27T12:16:10.879Z,12.93
2017-09-27T12:18:38.482Z,13.27
2017-09-27T12:21:06.053Z,14.13
2017-09-27T12:23:34.467Z,13.63
2017-09-27T12:26:02.842Z,14.00
2017-09-27T12:28:30.435Z,13.83
2017-09-27T12:30:57.990Z,15.77
2017-09-27T12:33:25.650Z,14.13
2017-09-27T12:35:53.225Z,13.93
2017-09-27T12:38:20.812Z,14.40
2017-09-27T12:40:48.419Z,14.60
2017-09-27T12:43:16.529Z,15.13
2017-09-27T12:45:45.792Z,15.70
2017-09-27T12:48:15.422Z,14.90
2017-09-27T12:50:44.156Z,15.50
2017-09-27T12:53:11.810Z,17.20
2017-09-27T12:55:39.402Z,15.70
2017-09-27T12:58:06.986Z,17.57
2017-09-27T13:00:34.558Z,15.97
2017-09-27T13:03:02.186Z,16.60
2017-09-27T13:05:29.769Z,16.30
2017-09-27T13:07:57.377Z,16.10
2017-09-27T13:10:24.975Z,16.00
2017-09-27T13:12:52.602Z,15.83
2017-09-27T13:15:20.197Z,16.50
2017-09-27T13:17:48.515Z,15.57
2017-09-27T13:20:16.241Z,15.30
2017-09-27T13:22:44.581Z,16.93
2017-09-27T13:25:12.180Z,18.70
2017-09-27T13:27:39.753Z,17.67
2017-09-27T13:30:07.339Z,18.53
2017-09-27T13:32:34.930Z,17.67
2017-09-27T13:35:02.540Z,12.63
2017-09-27T13:37:30.139Z,10.10
2017-09-27T13:39:57.699Z,11.83
2017-09-27T13:42:25.292Z,15.40
2017-09-27T13:44:53.646Z,15.10
2017-09-27T13:47:21.247Z,15.67
2017-09-27T13:49:48.841Z,17.80
2017-09-27T13:52:16.474Z,16.60
2017-09-27T13:54:44.078Z,16.70
2017-09-27T13:57:11.672Z,18.53
2017-09-27T13:59:40.035Z,19.93
2017-09-27T14:02:07.598Z,18.40
2017-09-27T14:04:35.430Z,18.27
2017-09-27T14:07:03.769Z,18.27
2017-09-27T14:09:32.159Z,18.77
2017-09-27T14:11:59.754Z,20.13
2017-09-27T14:14:27.353Z,18.10
2017-09-27T14:16:54.938Z,17.07
2017-09-27T14:19:22.527Z,15.57
2017-09-27T14:21:50.092Z,17.00
2017-09-27T14:24:17.677Z,16.60
2017-09-27T14:26:45.290Z,14.97
2017-09-27T14:29:12.919Z,14.70
2017-09-27T14:31:40.647Z,15.60
2017-09-27T14:34:08.229Z,12.20
2017-09-27T14:36:35.916Z,11.67
2017-09-27T14:39:04.274Z,9.73
2017-09-27T14:41:31.869Z,9.40
2017-09-27T14:44:00.221Z,8.40
2017-09-27T14:46:27.806Z,9.50
2017-09-27T14:48:56.165Z,8.80
2017-09-27T14:51:23.791Z,10.60
2017-09-27T14:53:51.392Z,12.13
2017-09-27T14:56:19.748Z,13.23
2017-09-27T14:58:47.503Z,14.20
2017-09-27T15:01:15.103Z,16.40
2017-09-27T15:03:42.722Z,16.80
2017-09-27T15:06:10.359Z,17.47
2017-09-27T15:08:37.951Z,20.37
2017-09-27T15:11:05.544Z,19.37
2017-09-27T15:13:33.126Z,20.23
2017-09-27T15:16:01.511Z,18.77
2017-09-27T15:18:29.907Z,19.43
2017-09-27T15:20:57.460Z,19.53
2017-09-27T15:23:25.047Z,21.20
2017-09-27T15:25:52.635Z,20.40
2017-09-27T15:28:20.222Z,17.43
2017-09-27T15:30:48.602Z,16.00
2017-09-27T15:33:17.021Z,14.40
2017-09-27T15:35:44.614Z,14.60
2017-09-27T15:38:12.198Z,12.30
2017-09-27T15:40:41.413Z,10.63
2017-09-27T15:43:09.047Z,9.73
2017-09-27T15:45:36.650Z,9.80
2017-09-27T15:48:04.260Z,9.50
2017-09-27T15:50:31.954Z,11.10
2017-09-27T15:52:59.567Z,10.37
2017-09-27T15:55:27.150Z,11.63
2017-09-27T15:57:54.747Z,10.87
2017-09-27T16:00:23.112Z,11.70
2017-09-27T16:02:51.505Z,13.30
2017-09-27T16:05:19.842Z,14.03
2017-09-27T16:07:47.418Z,13.50
2017-09-27T16:10:15.021Z,12.00
2017-09-27T16:12:42.621Z,15.43
2017-09-27T16:15:10.219Z,14.90
2017-09-27T16:17:38.546Z,14.00
2017-09-27T16:20:06.159Z,12.43
2017-09-27T16:22:34.510Z,12.33
2017-09-27T16:25:02.110Z,12.17
2017-09-27T16:27:30.469Z,12.93
2017-09-27T16:29:58.100Z,11.73
2017-09-27T16:32:25.724Z,11.57
2017-09-27T16:34:53.322Z,11.93
2017-09-27T16:37:20.920Z,13.47
2017-09-27T16:39:48.522Z,11.77
2017-09-27T16:42:16.163Z,12.07
2017-09-27T16:44:44.579Z,10.30
2017-09-27T16:47:12.988Z,11.07
2017-09-27T16:49:40.594Z,10.43
2017-09-27T16:52:08.248Z,11.53
2017-09-27T16:54:36.816Z,11.93
2017-09-27T16:57:04.389Z,12.73
2017-09-27T16:59:32.803Z,13.47
2017-09-27T17:02:00.375Z,13.40
2017-09-27T17:04:27.948Z,13.53
2017-09-27T17:06:55.560Z,14.57
2017-09-27T17:09:24.275Z,15.53
2017-09-27T17:11:56.784Z,16.20
2017-09-27T17:14:24.451Z,15.87
2017-09-27T17:16:52.041Z,15.60
2017-09-27T17:19:20.601Z,15.13
2017-09-27T17:21:48.234Z,17.27
2017-09-27T17:24:15.834Z,15.50
2017-09-27T17:26:43.410Z,15.82
2017-09-27T17:29:11.778Z,15.57
2017-09-27T17:31:40.188Z,14.50
2017-09-27T17:34:07.858Z,16.60
2017-09-27T17:36:35.445Z,14.90
2017-09-27T17:39:02.999Z,14.57
2017-09-27T17:41:30.634Z,12.83
2017-09-27T17:43:58.248Z,14.40
2017-09-27T17:46:25.850Z,13.10
2017-09-27T17:48:54.234Z,16.90
2017-09-27T17:51:21.827Z,13.87
2017-09-27T17:53:49.437Z,15.00
2017-09-27T17:56:17.825Z,15.63
2017-09-27T17:58:46.222Z,15.83
2017-09-27T18:01:13.810Z,13.20
2017-09-27T18:03:49.951Z,14.87
2017-09-27T18:06:25.283Z,14.43
2017-09-27T18:08:58.784Z,13.13
2017-09-27T18:11:31.963Z,14.67
2017-09-27T18:14:05.256Z,16.90
2017-09-27T18:16:40.138Z,18.03
2017-09-27T18:19:07.748Z,16.57
2017-09-27T18:21:36.115Z,15.80
2017-09-27T18:24:08.915Z,16.63
2017-09-27T18:26:36.728Z,17.00
2017-09-27T18:29:04.341Z,16.37
2017-09-27T18:31:32.719Z,15.63
2017-09-27T18:34:01.092Z,15.40
2017-09-27T18:36:28.680Z,16.40
2017-09-27T18:38:57.054Z,15.50
2017-09-27T18:41:24.674Z,14.10
2017-09-27T18:43:52.270Z,15.60
2017-09-27T18:46:19.884Z,14.30
2017-09-27T18:48:47.497Z,15.37
2017-09-27T18:51:18.424Z,19.00
2017-09-27T18:53:46.849Z,18.47
2017-09-27T18:56:14.472Z,15.63
2017-09-27T18:58:42.864Z,15.53
2017-09-27T19:01:10.450Z,15.10
2017-09-27T19:03:38.063Z,15.40
2017-09-27T19:06:06.457Z,14.53
2017-09-27T19:08:34.776Z,15.63
2017-09-27T19:11:02.428Z,13.63
2017-09-27T19:13:30.026Z,15.80
2017-09-27T19:15:57.647Z,14.53
2017-09-27T19:18:25.299Z,14.40
2017-09-27T19:20:52.894Z,15.63
2017-09-27T19:23:20.507Z,16.03
2017-09-27T19:25:48.881Z,15.03
2017-09-27T19:28:17.309Z,15.50
2017-09-27T19:30:44.904Z,15.40
2017-09-27T19:33:12.508Z,16.03
2017-09-27T19:35:40.123Z,16.97
2017-09-27T19:38:07.771Z,15.67
2017-09-27T19:40:35.378Z,17.30
2017-09-27T19:43:03.737Z,16.40
2017-09-27T19:45:32.702Z,15.60
2017-09-27T19:48:00.306Z,16.37
2017-09-27T19:50:28.655Z,17.13
2017-09-27T19:52:56.481Z,16.40
2017-09-27T19:55:24.054Z,15.33
2017-09-27T19:57:51.669Z,15.40
2017-09-27T20:00:20.027Z,15.43
2017-09-27T20:02:47.694Z,16.57
2017-09-27T20:05:15.323Z,16.47
2017-09-27T20:07:42.905Z,15.23
2017-09-27T20:10:10.527Z,15.30
2017-09-27T20:12:38.239Z,13.30
2017-09-27T20:15:06.810Z,13.73
2017-09-27T20:17:34.412Z,14.30
2017-09-27T20:20:02.772Z,13.70
2017-09-27T20:22:30.370Z,15.63
2017-09-27T20:24:57.974Z,15.80
2017-09-27T20:27:25.569Z,18.03
2017-09-27T20:29:53.959Z,15.90
2017-09-27T20:32:22.346Z,16.13
2017-09-27T20:34:50.700Z,16.20
2017-09-27T20:37:18.295Z,16.60
2017-09-27T20:39:45.871Z,16.30
2017-09-27T20:42:13.463Z,15.53
2017-09-27T20:44:41.170Z,15.60
2017-09-27T20:47:08.812Z,15.00
2017-09-27T20:49:37.377Z,15.53
2017-09-27T20:52:04.990Z,17.07
2017-09-27T20:54:32.554Z,15.93
2017-09-27T20:57:00.163Z,15.17
2017-09-27T20:59:27.759Z,15.63
2017-09-27T21:01:56.127Z,17.70
2017-09-27T21:04:24.465Z,17.57
2017-09-27T21:06:52.147Z,16.10
2017-09-27T21:09:19.731Z,16.47
2017-09-27T21:11:48.082Z,15.33
2017-09-27T21:14:15.696Z,16.70
2017-09-27T21:16:43.279Z,17.50
2017-09-27T21:19:10.888Z,18.63
2017-09-27T21:21:39.248Z,19.83
2017-09-27T21:24:06.861Z,22.17
2017-09-27T21:26:34.473Z,21.60
2017-09-27T21:29:02.062Z,21.77
2017-09-27T21:31:30.450Z,22.20
2017-09-27T21:33:58.808Z,22.00
2017-09-27T21:36:26.410Z,19.70
2017-09-27T21:38:53.999Z,19.87
2017-09-27T21:41:21.845Z,20.70
2017-09-27T21:43:49.423Z,20.03
2017-09-27T21:46:17.044Z,18.23
2017-09-27T21:48:44.642Z,18.13
2017-09-27T21:51:12.225Z,17.73
2017-09-27T21:53:39.817Z,16.90
2017-09-27T21:56:08.233Z,16.97
2017-09-27T21:58:35.830Z,16.57
2017-09-27T22:01:03.437Z,15.33
2017-09-27T22:03:31.055Z,14.77
2017-09-27T22:05:58.644Z,13.80
2017-09-27T22:08:27.031Z,14.97
2017-09-27T22:10:55.382Z,14.30
2017-09-27T22:13:22.990Z,15.47
2017-09-27T22:15:50.589Z,15.90
2017-09-27T22:18:18.182Z,14.87
2017-09-27T22:20:45.843Z,15.90
2017-09-27T22:23:14.195Z,15.43
2017-09-27T22:25:41.799Z,16.13
2017-09-27T22:28:10.126Z,15.23
2017-09-27T22:30:37.886Z,15.33
2017-09-27T22:33:05.511Z,15.40
2017-09-27T22:35:33.119Z,15.00
2017-09-27T22:38:00.715Z,16.47
2017-09-27T22:40:29.108Z,16.50
2017-09-27T22:42:57.452Z,15.50
2017-09-27T22:45:25.065Z,16.20
2017-09-27T22:47:52.632Z,15.67
2017-09-27T22:50:20.240Z,17.80
2017-09-27T22:52:47.818Z,17.17
2017-09-27T22:55:16.181Z,15.90
2017-09-27T22:57:43.763Z,16.80
2017-09-27T23:00:12.150Z,15.40
2017-09-27T23:02:40.491Z,18.83
2017-09-27T23:05:08.069Z,17.17
2017-09-27T23:07:35.684Z,16.97
2017-09-27T23:10:04.039Z,16.83
2017-09-27T23:12:31.644Z,17.90
2017-09-27T23:14:59.224Z,16.77
2017-09-27T23:17:27.707Z,17.70
2017-09-27T23:19:55.290Z,17.33
2017-09-27T23:22:35.433Z,18.33
2017-09-27T23:25:03.448Z,17.70
2017-09-27T23:27:31.813Z,17.50
2017-09-27T23:29:59.592Z,17.77
2017-09-27T23:32:27.151Z,17.27
2017-09-27T23:34:54.743Z,15.77
2017-09-27T23:37:22.328Z,17.23
2017-09-27T23:39:50.140Z,17.30
2017-09-27T23:42:17.706Z,16.27
2017-09-27T23:44:46.071Z,14.73
2017-09-27T23:47:13.654Z,16.93
2017-09-27T23:49:41.253Z,17.43
2017-09-27T23:52:08.891Z,17.60
2017-09-27T23:54:36.468Z,16.90
2017-09-27T23:57:04.110Z,17.10
2017-09-27T23:59:31.676Z,18.10
